Shelby — WCV6157 — position and weather

sailwx.info

Track history (hours):
 
Tides and Currents Weather Stations Pressure Air Temp Water Temp Dewpoint Dewpoint Depression Visibility Wind Speed Wind Dir Waves Ship Positions

Shelby

Owner: WEEKS MARINE, INC., CRANFORD, NJ. More information available from US FCC via Universal Licensing System and Coast Guard Vessel Documentation Center.

Last reported at 2015-Jul-29 17:13 UTC. Time now 2015-Jul-31 07:21 UTC.
Position N 40°57' W 073°54'.

Length 22 m; draft 3.1 m.

Type: Tug. MMSI: 366902344.

Date/timePositionNaut miles runAvg speedWind from/ knotsBaromVisibWave heightAir tempDewpointWater temp
2015-Jul-29 17:13N 40°57' W 073°54'4 6.2
2015-Jul-29 16:33N 40°53' W 073°56'6 6.1
2015-Jul-29 15:33N 40°48' W 073°59'7 6.7
2015-Jul-29 14:33N 40°41' W 074°02'2 2.2
2015-Jul-29 13:33N 40°41' W 074°05'0 0.0
2015-Jul-29 12:33N 40°41' W 074°05'0 0.0
2015-Jul-29 11:33N 40°41' W 074°05'0 0.3
2015-Jul-29 10:33N 40°41' W 074°04'0 0.0
2015-Jul-29 09:33N 40°41' W 074°04'0 0.0
2015-Jul-29 08:33N 40°41' W 074°04'0 0.0
2015-Jul-29 07:33N 40°41' W 074°04'0 0.0
2015-Jul-29 06:33N 40°41' W 074°04'0 0.0
2015-Jul-29 05:33N 40°41' W 074°04'0 0.0
2015-Jul-29 04:33N 40°41' W 074°04'0 0.0
2015-Jul-29 03:33N 40°41' W 074°04'0 0.0
2015-Jul-29 02:33N 40°41' W 074°04'0 0.0
2015-Jul-29 01:33N 40°41' W 074°04'0 0.0
2015-Jul-29 00:33N 40°41' W 074°04'0 0.0
2015-Jul-28 23:33N 40°41' W 074°04'0 0.5
2015-Jul-28 22:33N 40°40' W 074°04'12 2.4
2015-Jul-28 17:32N 40°28' W 074°03'1111.5
2015-Jul-28 16:33N 40°40' W 074°04'1 1.0
2015-Jul-28 15:33N 40°41' W 074°04'0 0.0
2015-Jul-28 14:33N 40°41' W 074°04'0 0.0
2015-Jul-28 13:33N 40°41' W 074°04'0 0.0
2015-Jul-28 12:33N 40°41' W 074°04'0 0.0
2015-Jul-28 11:33N 40°41' W 074°04'0 0.0
2015-Jul-28 10:33N 40°41' W 074°04'0 0.0
2015-Jul-28 09:33N 40°41' W 074°04'0 0.0
2015-Jul-28 08:33N 40°41' W 074°04'0 0.0
2015-Jul-28 07:33N 40°41' W 074°04'0 0.0
2015-Jul-28 06:33N 40°41' W 074°04'0 0.0
2015-Jul-28 05:33N 40°41' W 074°04'0 0.0
2015-Jul-28 04:33N 40°41' W 074°04'6 6.1
2015-Jul-28 03:32N 40°35' W 074°02'7 7.3
2015-Jul-28 02:33N 40°27' W 074°03'1 1.2
2015-Jul-28 01:24N 40°29' W 074°02'7 5.5
2015-Jul-28 00:03N 40°27' W 073°53'3 5.8
2015-Jul-27 23:32N 40°24' W 073°51'2 0.4
2015-Jul-27 18:14N 40°26' W 073°53'2 2.4
2015-Jul-27 17:16N 40°24' W 073°50'0 0.3
2015-Jul-27 16:21N 40°24' W 073°50'10 3.3
2015-Jul-27 13:19N 40°27' W 074°03'0 0.0
2015-Jul-27 12:29N 40°27' W 074°03'7 6.9
2015-Jul-27 11:30N 40°34' W 074°02'7 6.9
2015-Jul-27 10:33N 40°41' W 074°04'0 0.0
2015-Jul-27 09:33N 40°41' W 074°04'0 0.0
2015-Jul-27 08:33N 40°41' W 074°04'0 0.0
2015-Jul-27 07:33N 40°41' W 074°04'0 0.0
2015-Jul-27 06:33N 40°41' W 074°04'0 0.0
2015-Jul-27 05:33N 40°41' W 074°04'0 0.0
2015-Jul-27 04:33N 40°41' W 074°04'0 0.1
2015-Jul-27 03:33N 40°41' W 074°05'4 3.9
2015-Jul-27 02:33N 40°44' W 074°01'10 9.7
2015-Jul-27 01:33N 40°53' W 073°56'1 0.0
2015-Jul-25 19:33N 40°51' W 073°57'8 8.2
2015-Jul-25 18:33N 40°44' W 074°01'4 4.3
2015-Jul-25 17:33N 40°41' W 074°05'0 0.3
2015-Jul-25 16:33N 40°40' W 074°04'6 6.2
2015-Jul-25 15:33N 40°34' W 074°02'1 0.1
2015-Jul-25 11:33N 40°35' W 074°03'6 5.8
2015-Jul-25 10:33N 40°41' W 074°04'0 0.0
2015-Jul-25 09:33N 40°41' W 074°04'0 0.0
2015-Jul-25 08:33N 40°41' W 074°04'0 0.0
2015-Jul-25 07:33N 40°41' W 074°04'0 0.0
2015-Jul-25 06:33N 40°41' W 074°04'0 0.0
2015-Jul-25 05:33N 40°41' W 074°04'0 0.0
2015-Jul-25 04:33N 40°41' W 074°04'0 0.0
2015-Jul-25 03:33N 40°41' W 074°04'0 0.0
2015-Jul-25 02:33N 40°41' W 074°04'0 0.0
2015-Jul-25 01:33N 40°41' W 074°04'0 0.0
2015-Jul-25 00:33N 40°41' W 074°04'0 0.0
2015-Jul-24 23:33N 40°41' W 074°04'0 0.0
2015-Jul-24 22:33N 40°41' W 074°04'0 0.0
2015-Jul-24 21:33N 40°41' W 074°04'1 1.2
2015-Jul-24 20:33N 40°40' W 074°03'1 1.0
2015-Jul-24 19:33N 40°40' W 074°04'0 0.0
2015-Jul-24 18:33N 40°41' W 074°04'0 0.2
2015-Jul-24 17:33N 40°40' W 074°04'4 4.0
2015-Jul-24 16:32N 40°39' W 074°09'2 2.1
2015-Jul-24 15:33N 40°41' W 074°08'0 0.0
2015-Jul-24 14:33N 40°41' W 074°08'0 0.1
2015-Jul-24 13:33N 40°40' W 074°08'0 0.0
2015-Jul-24 12:33N 40°40' W 074°08'0 0.0
2015-Jul-24 11:33N 40°40' W 074°08'2 1.9
2015-Jul-24 10:33N 40°39' W 074°07'3 2.9
2015-Jul-24 09:33N 40°41' W 074°04'0 0.0
2015-Jul-24 08:33N 40°41' W 074°04'0 0.0
2015-Jul-24 07:33N 40°41' W 074°04'0 0.0
2015-Jul-24 06:33N 40°41' W 074°04'0 0.0
2015-Jul-24 05:33N 40°41' W 074°04'0 0.0
2015-Jul-24 04:33N 40°41' W 074°04'2 2.3
2015-Jul-24 03:33N 40°39' W 074°07'0 0.0
2015-Jul-24 02:33N 40°39' W 074°07'0 0.0
2015-Jul-24 01:33N 40°39' W 074°07'1 0.6
2015-Jul-24 00:33N 40°39' W 074°06'2 2.1
2015-Jul-23 23:33N 40°41' W 074°04'0 0.2
2015-Jul-23 22:33N 40°40' W 074°05'0 0.0
2015-Jul-23 21:33N 40°40' W 074°05'0 0.2
2015-Jul-23 20:33N 40°41' W 074°04'0 0.0
2015-Jul-23 19:33N 40°41' W 074°04'0 0.0
2015-Jul-23 18:33N 40°41' W 074°04'3 2.9
2015-Jul-23 17:33N 40°38' W 074°03'10 1.6
2015-Jul-23 11:26N 40°28' W 074°02'7 7.8
2015-Jul-23 10:33N 40°35' W 074°03'6 5.9
2015-Jul-23 09:33N 40°41' W 074°05'0 0.0
2015-Jul-23 08:33N 40°41' W 074°05'0 0.0
2015-Jul-23 07:33N 40°41' W 074°05'0 0.0
2015-Jul-23 06:33N 40°41' W 074°05'0 0.0
2015-Jul-23 05:33N 40°41' W 074°05'0 0.0
2015-Jul-23 04:33N 40°41' W 074°05'0 0.0
2015-Jul-23 03:33N 40°41' W 074°05'0 0.0
2015-Jul-23 02:33N 40°41' W 074°05'0 0.0
2015-Jul-23 01:33N 40°41' W 074°05'0 0.0
2015-Jul-23 00:33N 40°41' W 074°05'0 0.0
2015-Jul-22 23:33N 40°41' W 074°05'0 0.2
2015-Jul-22 22:33N 40°41' W 074°04'0 0.0
2015-Jul-22 21:33N 40°41' W 074°04'0 0.0
2015-Jul-22 20:33N 40°41' W 074°04'0 0.0
2015-Jul-22 19:33N 40°41' W 074°04'0 0.0
2015-Jul-22 18:33N 40°41' W 074°04'0 0.0
2015-Jul-22 17:33N 40°41' W 074°04'0 0.0
2015-Jul-22 16:33N 40°41' W 074°04'0 0.0
2015-Jul-22 15:33N 40°41' W 074°04'0 0.0
2015-Jul-22 14:33N 40°41' W 074°04'0 0.0
2015-Jul-22 13:33N 40°41' W 074°04'0 0.0
2015-Jul-22 12:33N 40°41' W 074°04'2 2.3
2015-Jul-22 11:33N 40°39' W 074°06'3 3.4
2015-Jul-22 10:33N 40°42' W 074°09'0 0.1
2015-Jul-22 09:34N 40°42' W 074°09'0 0.0
2015-Jul-22 08:33N 40°42' W 074°09'0 0.0
2015-Jul-22 07:33N 40°42' W 074°09'0 0.0
2015-Jul-22 06:33N 40°42' W 074°09'0 0.0
2015-Jul-22 05:34N 40°42' W 074°09'0 0.0
2015-Jul-22 04:33N 40°42' W 074°09'0 0.0
2015-Jul-22 03:33N 40°42' W 074°09'0 0.0
2015-Jul-22 02:30N 40°42' W 074°09'0 0.0
2015-Jul-22 01:25N 40°42' W 074°09'0 0.0
2015-Jul-22 00:33N 40°42' W 074°09'0 0.0
2015-Jul-21 23:33N 40°42' W 074°09'4 3.9
2015-Jul-21 22:33N 40°39' W 074°05'2 1.5
2015-Jul-21 21:34N 40°41' W 074°04'2 1.8
2015-Jul-21 20:34N 40°40' W 074°02'5 4.7
2015-Jul-21 19:33N 40°39' W 074°08'3 3.2
2015-Jul-21 18:34N 40°42' W 074°09'2 2.3
2015-Jul-21 17:33N 40°39' W 074°09'3 3.4
2015-Jul-21 16:34N 40°41' W 074°04'0 0.1
2015-Jul-21 15:34N 40°41' W 074°04'2 2.5
2015-Jul-21 14:34N 40°42' W 074°02'3 2.7
2015-Jul-21 13:34N 40°45' W 074°01'5 4.9
2015-Jul-21 12:34N 40°41' W 074°04'0 0.0
2015-Jul-21 11:34N 40°41' W 074°04'0 0.0
2015-Jul-21 10:34N 40°41' W 074°04'0 0.1
2015-Jul-21 09:34N 40°41' W 074°04'0 0.0
2015-Jul-21 08:34N 40°41' W 074°04'0 0.0
2015-Jul-21 07:34N 40°41' W 074°05'0 0.0
2015-Jul-21 06:34N 40°41' W 074°05'0 0.0
2015-Jul-21 05:34N 40°41' W 074°05'0 0.0
2015-Jul-21 04:34N 40°41' W 074°04'0 0.0
2015-Jul-21 03:34N 40°41' W 074°04'0 0.0
2015-Jul-21 02:34N 40°41' W 074°04'0 0.0
2015-Jul-21 01:34N 40°41' W 074°04'0 0.0
2015-Jul-21 00:34N 40°41' W 074°04'0 0.2
2015-Jul-20 23:34N 40°40' W 074°04'4 4.4
2015-Jul-20 22:33N 40°36' W 074°03'7 1.2
2015-Jul-20 16:33N 40°38' W 074°12'4 4.0
2015-Jul-20 15:34N 40°42' W 074°09'3 3.1
2015-Jul-20 14:34N 40°39' W 074°09'4 4.3
2015-Jul-20 13:34N 40°40' W 074°04'1 0.6
2015-Jul-20 12:34N 40°41' W 074°05'0 0.2
2015-Jul-20 11:34N 40°40' W 074°04'0 0.2
2015-Jul-20 10:33N 40°41' W 074°04'0 0.0
2015-Jul-20 09:34N 40°41' W 074°05'0 0.0
2015-Jul-20 08:33N 40°41' W 074°04'0 0.0
2015-Jul-20 07:34N 40°41' W 074°05'0 0.0
2015-Jul-20 06:33N 40°41' W 074°05'0 0.0
2015-Jul-20 05:34N 40°41' W 074°05'0 0.0
2015-Jul-20 04:34N 40°41' W 074°05'0 0.0
2015-Jul-20 03:34N 40°41' W 074°05'0 0.0
2015-Jul-20 02:34N 40°41' W 074°05'0 0.0
2015-Jul-20 01:34N 40°41' W 074°05'0 0.0
2015-Jul-20 00:34N 40°41' W 074°04'0 0.0
2015-Jul-19 23:34N 40°41' W 074°05'0 0.0
2015-Jul-19 22:34N 40°41' W 074°05'0 0.0
2015-Jul-19 21:33N 40°41' W 074°04'0 0.0
2015-Jul-19 20:34N 40°41' W 074°04'0 0.0
2015-Jul-19 19:33N 40°41' W 074°04'0 0.0
2015-Jul-19 18:34N 40°41' W 074°04'0 0.0
2015-Jul-19 17:33N 40°41' W 074°04'  
Track history (hours):
 
Tides and Currents Weather Stations Pressure Air Temp Water Temp Dewpoint Dewpoint Depression Visibility Wind Speed Wind Dir Waves Ship Positions

Shelby

Owner: WEEKS MARINE, INC., CRANFORD, NJ. More information available from US FCC via Universal Licensing System and Coast Guard Vessel Documentation Center.

Last reported at 2015-Jul-29 17:13 UTC. Time now 2015-Jul-31 07:21 UTC.
Position N 40°57' W 073°54'.

Length 22 m; draft 3.1 m.

Type: Tug. MMSI: 366902344.

Date/timePositionNaut miles runAvg speedWind from/ knotsBaromVisibWave heightAir tempDewpointWater temp
2015-Jul-29 17:13N 40°57' W 073°54'4 6.2
2015-Jul-29 16:33N 40°53' W 073°56'6 6.1
2015-Jul-29 15:33N 40°48' W 073°59'7 6.7
2015-Jul-29 14:33N 40°41' W 074°02'2 2.2
2015-Jul-29 13:33N 40°41' W 074°05'0 0.0
2015-Jul-29 12:33N 40°41' W 074°05'0 0.0
2015-Jul-29 11:33N 40°41' W 074°05'0 0.3
2015-Jul-29 10:33N 40°41' W 074°04'0 0.0
2015-Jul-29 09:33N 40°41' W 074°04'0 0.0
2015-Jul-29 08:33N 40°41' W 074°04'0 0.0
2015-Jul-29 07:33N 40°41' W 074°04'0 0.0
2015-Jul-29 06:33N 40°41' W 074°04'0 0.0
2015-Jul-29 05:33N 40°41' W 074°04'0 0.0
2015-Jul-29 04:33N 40°41' W 074°04'0 0.0
2015-Jul-29 03:33N 40°41' W 074°04'0 0.0
2015-Jul-29 02:33N 40°41' W 074°04'0 0.0
2015-Jul-29 01:33N 40°41' W 074°04'0 0.0
2015-Jul-29 00:33N 40°41' W 074°04'0 0.0
2015-Jul-28 23:33N 40°41' W 074°04'0 0.5
2015-Jul-28 22:33N 40°40' W 074°04'12 2.4
2015-Jul-28 17:32N 40°28' W 074°03'1111.5
2015-Jul-28 16:33N 40°40' W 074°04'1 1.0
2015-Jul-28 15:33N 40°41' W 074°04'0 0.0
2015-Jul-28 14:33N 40°41' W 074°04'0 0.0
2015-Jul-28 13:33N 40°41' W 074°04'0 0.0
2015-Jul-28 12:33N 40°41' W 074°04'0 0.0
2015-Jul-28 11:33N 40°41' W 074°04'0 0.0
2015-Jul-28 10:33N 40°41' W 074°04'0 0.0
2015-Jul-28 09:33N 40°41' W 074°04'0 0.0
2015-Jul-28 08:33N 40°41' W 074°04'0 0.0
2015-Jul-28 07:33N 40°41' W 074°04'0 0.0
2015-Jul-28 06:33N 40°41' W 074°04'0 0.0
2015-Jul-28 05:33N 40°41' W 074°04'0 0.0
2015-Jul-28 04:33N 40°41' W 074°04'6 6.1
2015-Jul-28 03:32N 40°35' W 074°02'7 7.3
2015-Jul-28 02:33N 40°27' W 074°03'1 1.2
2015-Jul-28 01:24N 40°29' W 074°02'7 5.5
2015-Jul-28 00:03N 40°27' W 073°53'3 5.8
2015-Jul-27 23:32N 40°24' W 073°51'2 0.4
2015-Jul-27 18:14N 40°26' W 073°53'2 2.4
2015-Jul-27 17:16N 40°24' W 073°50'0 0.3
2015-Jul-27 16:21N 40°24' W 073°50'10 3.3
2015-Jul-27 13:19N 40°27' W 074°03'0 0.0
2015-Jul-27 12:29N 40°27' W 074°03'7 6.9
2015-Jul-27 11:30N 40°34' W 074°02'7 6.9
2015-Jul-27 10:33N 40°41' W 074°04'0 0.0
2015-Jul-27 09:33N 40°41' W 074°04'0 0.0
2015-Jul-27 08:33N 40°41' W 074°04'0 0.0
2015-Jul-27 07:33N 40°41' W 074°04'0 0.0
2015-Jul-27 06:33N 40°41' W 074°04'0 0.0
2015-Jul-27 05:33N 40°41' W 074°04'0 0.0
2015-Jul-27 04:33N 40°41' W 074°04'0 0.1
2015-Jul-27 03:33N 40°41' W 074°05'4 3.9
2015-Jul-27 02:33N 40°44' W 074°01'10 9.7
2015-Jul-27 01:33N 40°53' W 073°56'1 0.0
2015-Jul-25 19:33N 40°51' W 073°57'8 8.2
2015-Jul-25 18:33N 40°44' W 074°01'4 4.3
2015-Jul-25 17:33N 40°41' W 074°05'0 0.3
2015-Jul-25 16:33N 40°40' W 074°04'6 6.2
2015-Jul-25 15:33N 40°34' W 074°02'1 0.1
2015-Jul-25 11:33N 40°35' W 074°03'6 5.8
2015-Jul-25 10:33N 40°41' W 074°04'0 0.0
2015-Jul-25 09:33N 40°41' W 074°04'0 0.0
2015-Jul-25 08:33N 40°41' W 074°04'0 0.0
2015-Jul-25 07:33N 40°41' W 074°04'0 0.0
2015-Jul-25 06:33N 40°41' W 074°04'0 0.0
2015-Jul-25 05:33N 40°41' W 074°04'0 0.0
2015-Jul-25 04:33N 40°41' W 074°04'0 0.0
2015-Jul-25 03:33N 40°41' W 074°04'0 0.0
2015-Jul-25 02:33N 40°41' W 074°04'0 0.0
2015-Jul-25 01:33N 40°41' W 074°04'0 0.0
2015-Jul-25 00:33N 40°41' W 074°04'0 0.0
2015-Jul-24 23:33N 40°41' W 074°04'0 0.0
2015-Jul-24 22:33N 40°41' W 074°04'0 0.0
2015-Jul-24 21:33N 40°41' W 074°04'1 1.2
2015-Jul-24 20:33N 40°40' W 074°03'1 1.0
2015-Jul-24 19:33N 40°40' W 074°04'0 0.0
2015-Jul-24 18:33N 40°41' W 074°04'0 0.2
2015-Jul-24 17:33N 40°40' W 074°04'4 4.0
2015-Jul-24 16:32N 40°39' W 074°09'2 2.1
2015-Jul-24 15:33N 40°41' W 074°08'0 0.0
2015-Jul-24 14:33N 40°41' W 074°08'0 0.1
2015-Jul-24 13:33N 40°40' W 074°08'0 0.0
2015-Jul-24 12:33N 40°40' W 074°08'0 0.0
2015-Jul-24 11:33N 40°40' W 074°08'2 1.9
2015-Jul-24 10:33N 40°39' W 074°07'3 2.9
2015-Jul-24 09:33N 40°41' W 074°04'0 0.0
2015-Jul-24 08:33N 40°41' W 074°04'0 0.0
2015-Jul-24 07:33N 40°41' W 074°04'0 0.0
2015-Jul-24 06:33N 40°41' W 074°04'0 0.0
2015-Jul-24 05:33N 40°41' W 074°04'0 0.0
2015-Jul-24 04:33N 40°41' W 074°04'2 2.3
2015-Jul-24 03:33N 40°39' W 074°07'0 0.0
2015-Jul-24 02:33N 40°39' W 074°07'0 0.0
2015-Jul-24 01:33N 40°39' W 074°07'1 0.6
2015-Jul-24 00:33N 40°39' W 074°06'2 2.1
2015-Jul-23 23:33N 40°41' W 074°04'0 0.2
2015-Jul-23 22:33N 40°40' W 074°05'0 0.0
2015-Jul-23 21:33N 40°40' W 074°05'0 0.2
2015-Jul-23 20:33N 40°41' W 074°04'0 0.0
2015-Jul-23 19:33N 40°41' W 074°04'0 0.0
2015-Jul-23 18:33N 40°41' W 074°04'3 2.9
2015-Jul-23 17:33N 40°38' W 074°03'10 1.6
2015-Jul-23 11:26N 40°28' W 074°02'7 7.8
2015-Jul-23 10:33N 40°35' W 074°03'6 5.9
2015-Jul-23 09:33N 40°41' W 074°05'0 0.0
2015-Jul-23 08:33N 40°41' W 074°05'0 0.0
2015-Jul-23 07:33N 40°41' W 074°05'0 0.0
2015-Jul-23 06:33N 40°41' W 074°05'0 0.0
2015-Jul-23 05:33N 40°41' W 074°05'0 0.0
2015-Jul-23 04:33N 40°41' W 074°05'0 0.0
2015-Jul-23 03:33N 40°41' W 074°05'0 0.0
2015-Jul-23 02:33N 40°41' W 074°05'0 0.0
2015-Jul-23 01:33N 40°41' W 074°05'0 0.0
2015-Jul-23 00:33N 40°41' W 074°05'0 0.0
2015-Jul-22 23:33N 40°41' W 074°05'0 0.2
2015-Jul-22 22:33N 40°41' W 074°04'0 0.0
2015-Jul-22 21:33N 40°41' W 074°04'0 0.0
2015-Jul-22 20:33N 40°41' W 074°04'0 0.0
2015-Jul-22 19:33N 40°41' W 074°04'0 0.0
2015-Jul-22 18:33N 40°41' W 074°04'0 0.0
2015-Jul-22 17:33N 40°41' W 074°04'0 0.0
2015-Jul-22 16:33N 40°41' W 074°04'0 0.0
2015-Jul-22 15:33N 40°41' W 074°04'0 0.0
2015-Jul-22 14:33N 40°41' W 074°04'0 0.0
2015-Jul-22 13:33N 40°41' W 074°04'0 0.0
2015-Jul-22 12:33N 40°41' W 074°04'2 2.3
2015-Jul-22 11:33N 40°39' W 074°06'3 3.4
2015-Jul-22 10:33N 40°42' W 074°09'0 0.1
2015-Jul-22 09:34N 40°42' W 074°09'0 0.0
2015-Jul-22 08:33N 40°42' W 074°09'0 0.0
2015-Jul-22 07:33N 40°42' W 074°09'0 0.0
2015-Jul-22 06:33N 40°42' W 074°09'0 0.0
2015-Jul-22 05:34N 40°42' W 074°09'0 0.0
2015-Jul-22 04:33N 40°42' W 074°09'0 0.0
2015-Jul-22 03:33N 40°42' W 074°09'0 0.0
2015-Jul-22 02:30N 40°42' W 074°09'0 0.0
2015-Jul-22 01:25N 40°42' W 074°09'0 0.0
2015-Jul-22 00:33N 40°42' W 074°09'0 0.0
2015-Jul-21 23:33N 40°42' W 074°09'4 3.9
2015-Jul-21 22:33N 40°39' W 074°05'2 1.5
2015-Jul-21 21:34N 40°41' W 074°04'2 1.8
2015-Jul-21 20:34N 40°40' W 074°02'5 4.7
2015-Jul-21 19:33N 40°39' W 074°08'3 3.2
2015-Jul-21 18:34N 40°42' W 074°09'2 2.3
2015-Jul-21 17:33N 40°39' W 074°09'3 3.4
2015-Jul-21 16:34N 40°41' W 074°04'0 0.1
2015-Jul-21 15:34N 40°41' W 074°04'2 2.5
2015-Jul-21 14:34N 40°42' W 074°02'3 2.7
2015-Jul-21 13:34N 40°45' W 074°01'5 4.9
2015-Jul-21 12:34N 40°41' W 074°04'0 0.0
2015-Jul-21 11:34N 40°41' W 074°04'0 0.0
2015-Jul-21 10:34N 40°41' W 074°04'0 0.1
2015-Jul-21 09:34N 40°41' W 074°04'0 0.0
2015-Jul-21 08:34N 40°41' W 074°04'0 0.0
2015-Jul-21 07:34N 40°41' W 074°05'0 0.0
2015-Jul-21 06:34N 40°41' W 074°05'0 0.0
2015-Jul-21 05:34N 40°41' W 074°05'0 0.0
2015-Jul-21 04:34N 40°41' W 074°04'0 0.0
2015-Jul-21 03:34N 40°41' W 074°04'0 0.0
2015-Jul-21 02:34N 40°41' W 074°04'0 0.0
2015-Jul-21 01:34N 40°41' W 074°04'0 0.0
2015-Jul-21 00:34N 40°41' W 074°04'0 0.2
2015-Jul-20 23:34N 40°40' W 074°04'4 4.4
2015-Jul-20 22:33N 40°36' W 074°03'7 1.2
2015-Jul-20 16:33N 40°38' W 074°12'4 4.0
2015-Jul-20 15:34N 40°42' W 074°09'3 3.1
2015-Jul-20 14:34N 40°39' W 074°09'4 4.3
2015-Jul-20 13:34N 40°40' W 074°04'1 0.6
2015-Jul-20 12:34N 40°41' W 074°05'0 0.2
2015-Jul-20 11:34N 40°40' W 074°04'0 0.2
2015-Jul-20 10:33N 40°41' W 074°04'0 0.0
2015-Jul-20 09:34N 40°41' W 074°05'0 0.0
2015-Jul-20 08:33N 40°41' W 074°04'0 0.0
2015-Jul-20 07:34N 40°41' W 074°05'0 0.0
2015-Jul-20 06:33N 40°41' W 074°05'0 0.0
2015-Jul-20 05:34N 40°41' W 074°05'0 0.0
2015-Jul-20 04:34N 40°41' W 074°05'0 0.0
2015-Jul-20 03:34N 40°41' W 074°05'0 0.0
2015-Jul-20 02:34N 40°41' W 074°05'0 0.0
2015-Jul-20 01:34N 40°41' W 074°05'0 0.0
2015-Jul-20 00:34N 40°41' W 074°04'0 0.0
2015-Jul-19 23:34N 40°41' W 074°05'0 0.0
2015-Jul-19 22:34N 40°41' W 074°05'0 0.0
2015-Jul-19 21:33N 40°41' W 074°04'0 0.0
2015-Jul-19 20:34N 40°41' W 074°04'0 0.0
2015-Jul-19 19:33N 40°41' W 074°04'0 0.0
2015-Jul-19 18:34N 40°41' W 074°04'0 0.0
2015-Jul-19 17:33N 40°41' W 074°04'  

Dump ship's entire track history